createdAt,value
2022-12-16T00:01:15.720Z,64.43
2022-12-16T00:03:44.352Z,64.67
2022-12-16T00:06:13.917Z,60.90
2022-12-16T00:08:42.016Z,55.43
2022-12-16T00:11:10.269Z,57.50
2022-12-16T00:13:40.347Z,60.83
2022-12-16T00:16:09.984Z,58.60
2022-12-16T00:18:38.117Z,56.93
2022-12-16T00:21:06.372Z,58.10
2022-12-16T00:23:36.627Z,58.40
2022-12-16T00:26:04.903Z,57.70
2022-12-16T00:28:32.982Z,58.63
2022-12-16T00:31:01.182Z,57.30
2022-12-16T00:33:29.398Z,57.43
2022-12-16T00:35:58.279Z,54.37
2022-12-16T00:38:27.368Z,49.83
2022-12-16T00:40:56.883Z,50.70
2022-12-16T00:43:24.966Z,55.17
2022-12-16T00:45:53.224Z,48.07
2022-12-16T00:48:23.144Z,50.90
2022-12-16T00:50:51.913Z,47.03
2022-12-16T00:53:20.181Z,53.40
2022-12-16T00:55:48.300Z,50.77
2022-12-16T00:58:18.238Z,53.27
2022-12-16T01:00:46.696Z,51.97
2022-12-16T01:03:21.121Z,45.97
2022-12-16T01:05:49.784Z,52.20
2022-12-16T01:08:17.893Z,51.17
2022-12-16T01:10:51.609Z,52.23
2022-12-16T01:13:21.988Z,52.33
2022-12-16T01:15:50.173Z,58.27
2022-12-16T01:18:18.771Z,56.17
2022-12-16T01:20:46.962Z,62.83
2022-12-16T01:23:15.064Z,55.83
2022-12-16T01:25:43.269Z,58.70
2022-12-16T01:28:11.416Z,58.20
2022-12-16T01:30:40.902Z,58.60
2022-12-16T01:33:08.941Z,59.03
2022-12-16T01:35:55.431Z,65.93
2022-12-16T01:38:24.183Z,58.67
2022-12-16T01:40:52.806Z,62.30
2022-12-16T01:43:26.715Z,56.40
2022-12-16T01:45:57.842Z,60.37
2022-12-16T01:48:37.445Z,62.40
2022-12-16T01:51:08.038Z,64.97
2022-12-16T01:53:37.034Z,63.93
2022-12-16T01:56:05.209Z,67.03
2022-12-16T01:58:34.600Z,60.70
2022-12-16T02:01:04.635Z,65.17
2022-12-16T02:03:35.250Z,69.07
2022-12-16T02:06:04.234Z,68.10
2022-12-16T02:08:32.609Z,66.30
2022-12-16T02:11:16.665Z,71.07
2022-12-16T02:13:57.727Z,69.67
2022-12-16T02:16:29.195Z,73.00
2022-12-16T02:18:59.280Z,70.13
2022-12-16T02:21:45.784Z,66.03
2022-12-16T02:24:33.811Z,63.93
2022-12-16T02:27:44.063Z,69.23
2022-12-16T02:30:38.389Z,68.87
2022-12-16T02:33:13.322Z,64.93
2022-12-16T02:35:43.055Z,68.20
2022-12-16T02:38:15.999Z,69.77
2022-12-16T02:40:45.341Z,64.90
2022-12-16T02:43:16.630Z,73.13
2022-12-16T02:45:46.190Z,65.27
2022-12-16T02:48:14.236Z,64.03
2022-12-16T02:50:43.843Z,66.20
2022-12-16T02:53:11.873Z,70.43
2022-12-16T02:55:46.051Z,68.93
2022-12-16T02:58:17.555Z,66.33
2022-12-16T03:00:52.745Z,64.10
2022-12-16T03:03:22.050Z,68.10
2022-12-16T03:05:50.642Z,63.77
2022-12-16T03:08:21.495Z,65.90
2022-12-16T03:10:52.624Z,61.70
2022-12-16T03:13:21.017Z,64.27
2022-12-16T03:15:50.930Z,62.47
2022-12-16T03:18:18.967Z,67.20
2022-12-16T03:20:48.577Z,64.03
2022-12-16T03:23:19.137Z,64.30
2022-12-16T03:25:48.569Z,63.33
2022-12-16T03:28:23.042Z,63.37
2022-12-16T03:31:03.083Z,68.53
2022-12-16T03:33:32.320Z,61.50
2022-12-16T03:36:01.834Z,64.33
2022-12-16T03:38:29.920Z,63.80
2022-12-16T03:40:58.097Z,62.70
2022-12-16T03:43:26.220Z,63.17
2022-12-16T03:45:56.707Z,59.53
2022-12-16T03:48:25.113Z,60.13
2022-12-16T03:50:53.285Z,61.43
2022-12-16T03:53:24.632Z,55.13
2022-12-16T03:55:52.770Z,59.50
2022-12-16T03:58:20.825Z,59.27
2022-12-16T04:00:49.017Z,56.30
2022-12-16T04:03:18.631Z,58.50
2022-12-16T04:05:46.997Z,57.33
2022-12-16T04:08:15.123Z,57.00
2022-12-16T04:11:00.434Z,56.50
2022-12-16T04:13:51.372Z,55.33
2022-12-16T04:16:36.940Z,55.73
2022-12-16T04:19:26.112Z,54.03
2022-12-16T04:22:11.884Z,57.20
2022-12-16T04:24:40.106Z,56.47
2022-12-16T04:27:27.862Z,54.20
2022-12-16T04:30:25.260Z,52.97
2022-12-16T04:33:12.886Z,51.47
2022-12-16T04:35:59.768Z,48.07
2022-12-16T04:38:45.428Z,50.63
2022-12-16T04:41:31.270Z,49.07
2022-12-16T04:44:17.013Z,53.77
2022-12-16T04:47:02.411Z,47.97
2022-12-16T04:49:47.725Z,48.23
2022-12-16T04:52:34.622Z,44.73
2022-12-16T04:55:20.386Z,43.97
2022-12-16T04:58:07.139Z,47.13
2022-12-16T05:00:52.665Z,46.33
2022-12-16T05:03:38.460Z,44.90
2022-12-16T05:06:24.362Z,52.07
2022-12-16T05:09:11.261Z,48.70
2022-12-16T05:11:56.751Z,50.03
2022-12-16T05:14:42.400Z,50.13
2022-12-16T05:17:28.087Z,52.90
2022-12-16T05:20:13.788Z,49.87
2022-12-16T05:22:59.598Z,50.63
2022-12-16T05:25:46.298Z,50.60
2022-12-16T05:28:32.082Z,46.93
2022-12-16T05:31:18.045Z,45.33
2022-12-16T05:34:03.574Z,47.40
2022-12-16T05:36:48.885Z,48.27
2022-12-16T05:39:34.196Z,46.47
2022-12-16T05:42:20.899Z,41.00
2022-12-16T05:45:06.261Z,44.80
2022-12-16T05:47:51.707Z,43.03
2022-12-16T05:50:37.601Z,42.63
2022-12-16T05:53:23.026Z,44.90
2022-12-16T05:56:20.456Z,45.97
2022-12-16T05:59:07.134Z,45.57
2022-12-16T06:01:52.852Z,46.40
2022-12-16T06:04:38.403Z,41.43
2022-12-16T06:07:24.089Z,46.97
2022-12-16T06:10:09.747Z,43.30
2022-12-16T06:12:55.456Z,45.93
2022-12-16T06:15:42.101Z,44.60
2022-12-16T06:18:27.841Z,46.87
2022-12-16T06:21:13.568Z,48.07
2022-12-16T06:24:01.539Z,43.33
2022-12-16T06:26:46.953Z,41.97
2022-12-16T06:29:32.222Z,44.20
2022-12-16T06:32:19.152Z,45.07
2022-12-16T06:35:19.303Z,44.87
2022-12-16T06:38:06.304Z,43.03
2022-12-16T06:40:52.302Z,43.50
2022-12-16T06:43:40.578Z,41.37
2022-12-16T06:46:26.417Z,46.90
2022-12-16T06:49:13.308Z,46.33
2022-12-16T06:51:58.873Z,46.60
2022-12-16T06:54:44.615Z,42.00
2022-12-16T06:57:30.351Z,42.40
2022-12-16T07:00:15.699Z,45.17
2022-12-16T07:03:01.554Z,44.87
2022-12-16T07:05:48.836Z,39.23
2022-12-16T07:08:34.285Z,45.57
2022-12-16T07:11:34.321Z,44.30
2022-12-16T07:14:19.771Z,42.03
2022-12-16T07:17:05.365Z,45.70
2022-12-16T07:19:51.218Z,41.73
2022-12-16T07:22:38.292Z,41.43
2022-12-16T07:25:25.056Z,44.70
2022-12-16T07:28:15.308Z,47.37
2022-12-16T07:31:01.528Z,48.57
2022-12-16T07:33:47.123Z,44.50
2022-12-16T07:36:41.253Z,43.90
2022-12-16T07:39:27.902Z,42.80
2022-12-16T07:42:13.715Z,47.03
2022-12-16T07:44:59.431Z,48.20
2022-12-16T07:47:45.084Z,44.87
2022-12-16T07:50:30.534Z,46.73
2022-12-16T07:53:16.018Z,46.13
2022-12-16T07:56:02.976Z,46.17
2022-12-16T07:58:48.737Z,50.93
2022-12-16T08:01:34.428Z,44.03
2022-12-16T08:04:20.169Z,47.93
2022-12-16T08:07:14.358Z,44.27
2022-12-16T08:09:59.982Z,43.47
2022-12-16T08:12:46.969Z,47.77
2022-12-16T08:15:32.786Z,50.77
2022-12-16T08:18:18.341Z,48.60
2022-12-16T08:21:03.846Z,49.20
2022-12-16T08:23:49.231Z,47.30
2022-12-16T08:26:34.714Z,47.83
2022-12-16T08:29:43.256Z,52.03
2022-12-16T08:32:27.374Z,57.50
2022-12-16T08:35:13.053Z,64.40
2022-12-16T08:37:58.423Z,50.17
2022-12-16T08:40:44.165Z,57.23
2022-12-16T08:43:29.900Z,55.07
2022-12-16T08:46:17.048Z,55.83
2022-12-16T08:49:02.774Z,47.50
2022-12-16T08:51:48.509Z,44.87
2022-12-16T08:54:34.239Z,49.17
2022-12-16T08:57:19.512Z,46.60
2022-12-16T09:00:19.595Z,43.63
2022-12-16T09:03:06.461Z,41.03
2022-12-16T09:05:52.370Z,45.93
2022-12-16T09:08:38.108Z,44.20
2022-12-16T09:11:23.697Z,43.33
2022-12-16T09:14:09.583Z,45.40
2022-12-16T09:16:55.481Z,42.67
2022-12-16T09:19:42.907Z,43.13
2022-12-16T09:22:31.056Z,43.57
2022-12-16T09:25:16.694Z,49.53
2022-12-16T09:28:02.465Z,45.87
2022-12-16T09:30:48.220Z,48.43
2022-12-16T09:33:33.803Z,49.37
2022-12-16T09:36:20.783Z,52.23
2022-12-16T09:39:06.699Z,55.23
2022-12-16T09:42:00.468Z,57.83
2022-12-16T09:44:53.214Z,57.20
2022-12-16T09:47:42.021Z,61.07
2022-12-16T09:50:35.764Z,64.37
2022-12-16T09:53:22.951Z,64.10
2022-12-16T09:56:08.703Z,53.33
2022-12-16T09:58:55.442Z,55.10
2022-12-16T10:01:40.870Z,52.87
2022-12-16T10:04:28.727Z,50.40
2022-12-16T10:07:18.936Z,51.77
2022-12-16T10:10:08.847Z,49.90
2022-12-16T10:12:57.568Z,53.37
2022-12-16T10:15:48.259Z,55.07
2022-12-16T10:18:41.654Z,49.83
2022-12-16T10:21:27.293Z,48.60
2022-12-16T10:24:15.936Z,49.03
2022-12-16T10:27:08.241Z,53.00
2022-12-16T10:29:54.576Z,50.27
2022-12-16T10:32:45.496Z,52.87
2022-12-16T10:35:37.907Z,46.60
2022-12-16T10:38:25.256Z,52.50
2022-12-16T10:41:10.790Z,52.37
2022-12-16T10:44:00.854Z,49.17
2022-12-16T10:46:48.300Z,48.70
2022-12-16T10:49:34.331Z,49.57
2022-12-16T10:52:20.074Z,45.00
2022-12-16T10:55:10.448Z,44.67
2022-12-16T10:57:57.889Z,52.67
2022-12-16T11:01:02.382Z,46.10
2022-12-16T11:03:48.497Z,45.37
2022-12-16T11:06:36.605Z,42.73
2022-12-16T11:09:43.520Z,50.57
2022-12-16T11:12:46.132Z,52.10
2022-12-16T11:15:42.472Z,46.63
2022-12-16T11:18:32.154Z,53.63
2022-12-16T11:21:31.505Z,44.70
2022-12-16T11:24:35.347Z,51.60
2022-12-16T11:27:21.445Z,43.57
2022-12-16T11:30:11.124Z,47.90
2022-12-16T11:32:57.385Z,41.57
2022-12-16T11:35:45.866Z,45.97
2022-12-16T11:38:37.125Z,44.70
2022-12-16T11:41:24.774Z,41.40
2022-12-16T11:44:10.799Z,39.73
2022-12-16T11:46:56.586Z,40.70
2022-12-16T11:49:45.639Z,45.80
2022-12-16T11:52:37.627Z,43.93
2022-12-16T11:56:03.215Z,52.90
2022-12-16T11:58:40.103Z,49.70
2022-12-16T12:01:30.422Z,51.93
2022-12-16T12:04:16.172Z,49.73
2022-12-16T12:07:32.449Z,53.47
2022-12-16T12:10:20.633Z,45.83
2022-12-16T12:13:07.875Z,44.60
2022-12-16T12:15:56.664Z,50.23
2022-12-16T12:18:46.964Z,45.03
2022-12-16T12:21:35.727Z,42.60
2022-12-16T12:24:24.638Z,43.27
2022-12-16T12:27:21.590Z,44.80
2022-12-16T12:30:16.506Z,47.63
2022-12-16T12:33:04.890Z,40.87
2022-12-16T12:36:00.151Z,43.60
2022-12-16T12:38:48.378Z,42.93
2022-12-16T12:41:37.526Z,39.13
2022-12-16T12:44:42.498Z,47.73
2022-12-16T12:47:34.204Z,40.70
2022-12-16T12:50:22.359Z,40.20
2022-12-16T12:53:24.377Z,44.70
2022-12-16T12:56:13.575Z,44.93
2022-12-16T12:59:00.362Z,46.87
2022-12-16T13:01:47.160Z,53.80
2022-12-16T13:04:34.298Z,51.77
2022-12-16T13:07:19.908Z,43.70
2022-12-16T13:10:05.254Z,42.97
2022-12-16T13:12:51.562Z,46.00
2022-12-16T13:15:51.951Z,47.53
2022-12-16T13:18:47.243Z,41.90
2022-12-16T13:22:06.176Z,44.90
2022-12-16T13:24:55.832Z,49.30
2022-12-16T13:27:41.784Z,50.03
2022-12-16T13:30:42.550Z,45.03
2022-12-16T13:33:43.645Z,47.53
2022-12-16T13:36:29.800Z,47.57
2022-12-16T13:39:16.758Z,46.53
2022-12-16T13:42:18.069Z,47.47
2022-12-16T13:45:26.899Z,54.73
2022-12-16T13:48:23.833Z,55.70
2022-12-16T13:51:18.059Z,58.83
2022-12-16T13:54:06.187Z,52.80
2022-12-16T13:56:53.193Z,59.20
2022-12-16T13:59:40.167Z,54.73
2022-12-16T14:02:37.196Z,61.50
2022-12-16T14:05:33.228Z,61.80
2022-12-16T14:08:18.601Z,67.60
2022-12-16T14:11:04.038Z,62.87
2022-12-16T14:13:51.958Z,64.90
2022-12-16T14:16:42.448Z,66.57
2022-12-16T14:19:36.058Z,69.40
2022-12-16T14:22:27.571Z,70.33
2022-12-16T14:25:26.203Z,73.27
2022-12-16T14:28:13.673Z,73.23
2022-12-16T14:30:59.627Z,78.57
2022-12-16T14:33:46.319Z,74.33
2022-12-16T14:36:41.876Z,71.93
2022-12-16T14:39:32.616Z,79.03
2022-12-16T14:42:18.033Z,81.03
2022-12-16T14:45:04.387Z,86.50
2022-12-16T14:47:49.662Z,89.30
2022-12-16T14:50:40.055Z,85.43
2022-12-16T14:53:34.625Z,89.40
2022-12-16T14:56:37.456Z,86.13
2022-12-16T14:59:33.145Z,92.40
2022-12-16T15:02:27.575Z,94.33
2022-12-16T15:05:13.324Z,89.03
2022-12-16T15:07:58.695Z,90.47
2022-12-16T15:10:45.059Z,83.73
2022-12-16T15:13:34.979Z,83.10
2022-12-16T15:16:21.068Z,81.10
2022-12-16T15:19:07.488Z,83.00
2022-12-16T15:21:53.007Z,82.33
2022-12-16T15:24:39.721Z,99.40
2022-12-16T15:27:44.202Z,85.47
2022-12-16T15:30:54.752Z,83.93
2022-12-16T15:33:41.429Z,82.00
2022-12-16T15:36:42.535Z,85.40
2022-12-16T15:39:29.890Z,89.43
2022-12-16T15:42:15.211Z,86.13
2022-12-16T15:45:10.680Z,90.07
2022-12-16T15:47:57.794Z,89.47
2022-12-16T15:50:44.293Z,87.27
2022-12-16T15:53:34.499Z,84.50
2022-12-16T15:56:20.380Z,75.60
2022-12-16T15:59:06.103Z,74.00
2022-12-16T16:02:05.143Z,76.17
2022-12-16T16:04:52.286Z,75.17
2022-12-16T16:07:39.132Z,74.77
2022-12-16T16:10:31.677Z,76.17
2022-12-16T16:13:17.161Z,83.63
2022-12-16T16:16:03.389Z,108.30
2022-12-16T16:18:49.292Z,88.90
2022-12-16T16:21:36.256Z,91.23
2022-12-16T16:24:21.970Z,97.00
2022-12-16T16:27:22.181Z,94.37
2022-12-16T16:30:07.897Z,86.87
2022-12-16T16:32:53.749Z,85.10
2022-12-16T16:35:39.438Z,86.77
2022-12-16T16:38:42.932Z,87.73
2022-12-16T16:41:30.633Z,84.03
2022-12-16T16:44:19.602Z,80.77
2022-12-16T16:47:05.532Z,84.43
2022-12-16T16:49:52.227Z,88.17
2022-12-16T16:52:38.446Z,90.93
2022-12-16T16:55:25.675Z,89.37
2022-12-16T16:58:11.219Z,85.10
2022-12-16T17:00:57.049Z,89.00
2022-12-16T17:03:43.164Z,86.47
2022-12-16T17:06:29.388Z,89.27
2022-12-16T17:09:14.870Z,86.77
2022-12-16T17:12:01.796Z,90.33
2022-12-16T17:14:47.245Z,89.60
2022-12-16T17:17:32.463Z,81.30
2022-12-16T17:20:18.143Z,88.13
2022-12-16T17:23:03.467Z,92.33
2022-12-16T17:25:48.845Z,87.07
2022-12-16T17:28:35.655Z,96.60
2022-12-16T17:31:21.469Z,89.87
2022-12-16T17:34:07.127Z,88.53
2022-12-16T17:36:52.940Z,89.73
2022-12-16T17:39:38.245Z,92.77
2022-12-16T17:42:24.396Z,99.73
2022-12-16T17:45:11.100Z,99.47
2022-12-16T17:47:56.641Z,104.80
2022-12-16T17:50:42.346Z,112.30
2022-12-16T17:53:27.619Z,106.13
2022-12-16T17:56:13.281Z,101.37
2022-12-16T17:58:55.211Z,97.13
2022-12-16T18:01:42.238Z,93.87
2022-12-16T18:04:28.034Z,102.97
2022-12-16T18:07:13.695Z,102.67
2022-12-16T18:09:59.538Z,98.47
2022-12-16T18:12:45.144Z,96.80
2022-12-16T18:15:30.879Z,95.77
2022-12-16T18:18:18.855Z,87.67
2022-12-16T18:21:04.282Z,86.23
2022-12-16T18:23:50.072Z,81.10
2022-12-16T18:26:35.734Z,84.90
2022-12-16T18:29:20.946Z,89.43
2022-12-16T18:32:06.808Z,82.90
2022-12-16T18:34:53.620Z,79.97
2022-12-16T18:37:39.405Z,82.40
2022-12-16T18:40:26.602Z,90.93
2022-12-16T18:43:12.136Z,84.60
2022-12-16T18:45:57.844Z,81.93
2022-12-16T18:48:43.558Z,81.40
2022-12-16T18:51:38.879Z,83.70
2022-12-16T18:54:24.111Z,79.37
2022-12-16T18:57:09.828Z,84.80
2022-12-16T18:59:56.287Z,81.40
2022-12-16T19:02:42.477Z,77.50
2022-12-16T19:05:28.160Z,83.70
2022-12-16T19:08:15.263Z,88.20
2022-12-16T19:11:00.774Z,77.90
2022-12-16T19:13:46.403Z,88.03
2022-12-16T19:16:32.294Z,91.30
2022-12-16T19:19:20.140Z,82.07
2022-12-16T19:22:06.212Z,75.30
2022-12-16T19:24:55.085Z,79.20
2022-12-16T19:27:58.473Z,83.40
2022-12-16T19:30:43.719Z,94.03
2022-12-16T19:33:29.288Z,97.77
2022-12-16T19:36:15.161Z,89.67
2022-12-16T19:39:00.656Z,87.70
2022-12-16T19:41:47.382Z,95.13
2022-12-16T19:44:32.917Z,94.20
2022-12-16T19:47:18.419Z,101.40
2022-12-16T19:50:04.324Z,98.80
2022-12-16T19:52:49.961Z,94.40
2022-12-16T19:55:35.818Z,92.00
2022-12-16T19:58:22.628Z,96.60
2022-12-16T20:01:07.945Z,89.13
2022-12-16T20:03:56.569Z,90.83
2022-12-16T20:06:42.584Z,97.17
2022-12-16T20:09:28.335Z,87.63
2022-12-16T20:12:14.123Z,104.73
2022-12-16T20:15:00.987Z,98.03
2022-12-16T20:17:46.596Z,95.53
2022-12-16T20:20:32.522Z,92.90
2022-12-16T20:23:18.245Z,93.90
2022-12-16T20:26:11.397Z,98.43
2022-12-16T20:28:57.076Z,97.77
2022-12-16T20:31:49.160Z,102.47
2022-12-16T20:34:35.165Z,109.33
2022-12-16T20:37:20.738Z,109.90
2022-12-16T20:40:06.321Z,125.87
2022-12-16T20:42:51.710Z,124.07
2022-12-16T20:45:39.009Z,136.17
2022-12-16T20:48:25.686Z,150.50
2022-12-16T20:51:14.516Z,144.33
2022-12-16T20:54:00.117Z,156.53
2022-12-16T20:56:46.104Z,129.03
2022-12-16T20:59:31.719Z,129.63
2022-12-16T21:02:29.072Z,124.53
2022-12-16T21:05:19.842Z,130.20
2022-12-16T21:08:05.271Z,145.30
2022-12-16T21:10:51.637Z,136.17
2022-12-16T21:13:37.525Z,136.03
2022-12-16T21:16:24.584Z,147.77
2022-12-16T21:19:10.155Z,123.63
2022-12-16T21:21:57.079Z,146.60
2022-12-16T21:24:42.528Z,142.13
2022-12-16T21:27:28.160Z,118.40
2022-12-16T21:30:13.670Z,114.53
2022-12-16T21:32:59.199Z,125.37
2022-12-16T21:35:44.789Z,116.37
2022-12-16T21:38:31.879Z,100.80
2022-12-16T21:41:17.826Z,102.03
2022-12-16T21:44:03.464Z,93.70
2022-12-16T21:46:49.127Z,98.87
2022-12-16T21:49:49.181Z,99.13
2022-12-16T21:52:34.938Z,100.63
2022-12-16T21:55:21.901Z,110.97
2022-12-16T21:58:07.690Z,117.83
2022-12-16T22:00:53.618Z,102.00
2022-12-16T22:03:46.104Z,102.77
2022-12-16T22:06:31.721Z,99.70
2022-12-16T22:09:17.490Z,106.30
2022-12-16T22:12:04.866Z,104.90
2022-12-16T22:14:50.762Z,104.50
2022-12-16T22:17:36.707Z,100.97
2022-12-16T22:20:22.835Z,97.57
2022-12-16T22:23:08.203Z,100.27
2022-12-16T22:25:54.056Z,98.53
2022-12-16T22:28:43.194Z,105.37
2022-12-16T22:31:28.993Z,104.33
2022-12-16T22:34:14.655Z,109.70
2022-12-16T22:37:00.528Z,103.87
2022-12-16T22:39:45.956Z,100.30
2022-12-16T22:42:31.563Z,103.03
2022-12-16T22:45:18.300Z,100.17
2022-12-16T22:48:03.923Z,84.17
2022-12-16T22:50:50.491Z,93.63
2022-12-16T22:53:36.173Z,97.63
2022-12-16T22:56:21.774Z,97.10
2022-12-16T22:59:07.834Z,92.43
2022-12-16T23:01:54.526Z,88.07
2022-12-16T23:04:42.579Z,86.73
2022-12-16T23:07:28.065Z,102.63
2022-12-16T23:10:13.710Z,95.17
2022-12-16T23:13:10.755Z,99.23
2022-12-16T23:16:01.779Z,98.30
2022-12-16T23:18:48.641Z,98.03
2022-12-16T23:21:34.390Z,104.13
2022-12-16T23:24:20.275Z,106.50
2022-12-16T23:27:05.815Z,103.10
2022-12-16T23:29:51.522Z,108.60
2022-12-16T23:32:38.010Z,100.93
2022-12-16T23:35:30.656Z,99.33
2022-12-16T23:38:20.308Z,97.80
2022-12-16T23:41:05.822Z,94.23
2022-12-16T23:43:51.654Z,86.93
2022-12-16T23:46:37.450Z,90.37
2022-12-16T23:49:23.281Z,88.10
2022-12-16T23:52:10.258Z,88.87
2022-12-16T23:54:56.121Z,94.70
2022-12-16T23:57:41.725Z,96.00
